WMT2QR LROP-LZIB
Flight info
| Callsign | WMT2QR |
|---|---|
| Flight time | 1h 17m |
| Altitude | 38000 |
| Route | BUKEL DCT PELUR DCT EDETA DCT LARMU DCT KARIL DCT TAKOS DCT KALIF DCT SLC N190 NIT |
| Aircraft | A321/M-SDE1E2E3FGIJ1J4RWXY/LB1 |
Departure
| Time | 2026-04-30 13:03 |
|---|---|
| Airport | Bucharest Henri Coandă International Airport (LROP) |
Arrival
| Time | 2026-04-30 14:20 |
|---|---|
| Airport | M. R. Štefánik Airport (LZIB) |
| Time | Latitude | Longitude | Altitude | Speed | Heading |
|---|---|---|---|---|---|
| 2026-04-30 12:24 | 44.56878 | 26.08747 | 323 ft | 0 kts | 174° |
| 2026-04-30 12:56 | 44.56887 | 26.08746 | 322 ft | 2 kts | 174° |
| 2026-04-30 12:56 | 44.56904 | 26.08744 | 320 ft | 2 kts | 174° |
| 2026-04-30 12:56 | 44.56920 | 26.08741 | 321 ft | 2 kts | 190° |
| 2026-04-30 12:56 | 44.56933 | 26.08753 | 322 ft | 2 kts | 274° |
| 2026-04-30 12:57 | 44.56932 | 26.08763 | 319 ft | 0 kts | 267° |
| 2026-04-30 12:59 | 44.56932 | 26.08750 | 322 ft | 3 kts | 266° |
| 2026-04-30 12:59 | 44.56930 | 26.08711 | 322 ft | 6 kts | 266° |
| 2026-04-30 13:00 | 44.56925 | 26.08634 | 323 ft | 11 kts | 263° |
| 2026-04-30 13:00 | 44.56947 | 26.08553 | 323 ft | 9 kts | 343° |
| 2026-04-30 13:00 | 44.57015 | 26.08541 | 323 ft | 11 kts | 355° |
| 2026-04-30 13:00 | 44.57093 | 26.08529 | 320 ft | 12 kts | 353° |
| 2026-04-30 13:01 | 44.57181 | 26.08514 | 323 ft | 13 kts | 353° |
| 2026-04-30 13:01 | 44.57279 | 26.08498 | 323 ft | 15 kts | 353° |
| 2026-04-30 13:01 | 44.57376 | 26.08483 | 323 ft | 13 kts | 354° |
| 2026-04-30 13:01 | 44.57470 | 26.08469 | 323 ft | 12 kts | 354° |
| 2026-04-30 13:02 | 44.57534 | 26.08460 | 321 ft | 9 kts | 354° |
| 2026-04-30 13:02 | 44.57604 | 26.08449 | 323 ft | 11 kts | 354° |
| 2026-04-30 13:02 | 44.57661 | 26.08458 | 323 ft | 4 kts | 62° |
| 2026-04-30 13:02 | 44.57669 | 26.08532 | 324 ft | 18 kts | 84° |
| 2026-04-30 13:03 | 44.57712 | 26.09069 | 322 ft | 94 kts | 84° |
| 2026-04-30 13:03 | 44.57769 | 26.09836 | 325 ft | 138 kts | 84° |
| 2026-04-30 13:03 | 44.57875 | 26.11237 | 975 ft | 143 kts | 84° |
| 2026-04-30 13:03 | 44.57938 | 26.12605 | 1852 ft | 139 kts | 81° |
| 2026-04-30 13:04 | 44.58042 | 26.14027 | 2273 ft | 156 kts | 78° |
| 2026-04-30 13:04 | 44.58184 | 26.15658 | 2588 ft | 181 kts | 80° |
| 2026-04-30 13:04 | 44.58421 | 26.17509 | 3017 ft | 204 kts | 67° |
| 2026-04-30 13:04 | 44.59370 | 26.19099 | 3505 ft | 229 kts | 32° |
| 2026-04-30 13:05 | 44.60986 | 26.19490 | 4239 ft | 251 kts | 354° |
| 2026-04-30 13:05 | 44.62629 | 26.18504 | 5090 ft | 264 kts | 332° |
| 2026-04-30 13:05 | 44.64137 | 26.16979 | 5968 ft | 270 kts | 324° |
| 2026-04-30 13:06 | 44.67024 | 26.13498 | 7655 ft | 278 kts | 321° |
| 2026-04-30 13:06 | 44.68501 | 26.11722 | 8498 ft | 280 kts | 321° |
| 2026-04-30 13:06 | 44.70005 | 26.09960 | 9341 ft | 283 kts | 321° |
| 2026-04-30 13:06 | 44.71547 | 26.08214 | 10164 ft | 287 kts | 321° |
| 2026-04-30 13:07 | 44.73121 | 26.06470 | 10681 ft | 300 kts | 321° |
| 2026-04-30 13:07 | 44.74829 | 26.04593 | 10953 ft | 323 kts | 322° |
| 2026-04-30 13:07 | 44.76631 | 26.02613 | 11475 ft | 333 kts | 322° |
| 2026-04-30 13:07 | 44.78480 | 26.00588 | 12171 ft | 338 kts | 322° |
| 2026-04-30 13:08 | 44.80348 | 25.98538 | 12891 ft | 343 kts | 321° |
| 2026-04-30 13:08 | 44.82236 | 25.96461 | 13640 ft | 347 kts | 321° |
| 2026-04-30 13:08 | 44.84150 | 25.94359 | 14362 ft | 350 kts | 320° |
| 2026-04-30 13:08 | 44.86081 | 25.92233 | 15058 ft | 353 kts | 320° |
| 2026-04-30 13:09 | 44.88016 | 25.90094 | 15772 ft | 355 kts | 319° |
| 2026-04-30 13:09 | 44.89965 | 25.87935 | 16500 ft | 357 kts | 319° |
| 2026-04-30 13:09 | 44.91927 | 25.85763 | 17225 ft | 360 kts | 319° |
| 2026-04-30 13:09 | 44.93905 | 25.83572 | 17930 ft | 363 kts | 318° |
| 2026-04-30 13:10 | 44.95899 | 25.81358 | 18630 ft | 366 kts | 318° |
| 2026-04-30 13:10 | 44.97907 | 25.79129 | 19262 ft | 369 kts | 317° |
| 2026-04-30 13:10 | 44.99934 | 25.76878 | 19939 ft | 371 kts | 316° |
| 2026-04-30 13:10 | 45.01968 | 25.74621 | 20614 ft | 373 kts | 316° |
| 2026-04-30 13:11 | 45.04010 | 25.72347 | 21270 ft | 374 kts | 315° |
| 2026-04-30 13:11 | 45.06060 | 25.70056 | 21910 ft | 376 kts | 314° |
| 2026-04-30 13:11 | 45.08117 | 25.67757 | 22573 ft | 378 kts | 314° |
| 2026-04-30 13:11 | 45.10188 | 25.65439 | 23232 ft | 379 kts | 313° |
| 2026-04-30 13:12 | 45.12262 | 25.63118 | 23868 ft | 381 kts | 313° |
| 2026-04-30 13:12 | 45.14347 | 25.60786 | 24383 ft | 383 kts | 313° |
| 2026-04-30 13:12 | 45.16442 | 25.58440 | 24867 ft | 385 kts | 313° |
| 2026-04-30 13:13 | 45.20665 | 25.53700 | 25816 ft | 390 kts | 313° |
| 2026-04-30 13:13 | 45.22799 | 25.51302 | 26268 ft | 392 kts | 313° |
| 2026-04-30 13:13 | 45.27093 | 25.46462 | 27149 ft | 397 kts | 313° |
| 2026-04-30 13:14 | 45.29235 | 25.44048 | 27589 ft | 399 kts | 313° |
| 2026-04-30 13:14 | 45.31419 | 25.41590 | 28015 ft | 402 kts | 313° |
| 2026-04-30 13:14 | 45.35829 | 25.36621 | 28885 ft | 408 kts | 313° |
| 2026-04-30 13:15 | 45.38052 | 25.34103 | 29297 ft | 410 kts | 313° |
| 2026-04-30 13:15 | 45.42550 | 25.28995 | 30068 ft | 416 kts | 314° |
| 2026-04-30 13:15 | 45.44817 | 25.26420 | 30430 ft | 419 kts | 314° |
| 2026-04-30 13:16 | 45.47103 | 25.23820 | 30732 ft | 422 kts | 314° |
| 2026-04-30 13:16 | 45.49404 | 25.21206 | 31037 ft | 425 kts | 315° |
| 2026-04-30 13:16 | 45.51725 | 25.18568 | 31325 ft | 428 kts | 315° |
| 2026-04-30 13:17 | 45.56404 | 25.13233 | 31948 ft | 433 kts | 316° |
| 2026-04-30 13:17 | 45.58762 | 25.10538 | 32351 ft | 433 kts | 316° |
| 2026-04-30 13:17 | 45.63466 | 25.05166 | 33171 ft | 433 kts | 317° |
| 2026-04-30 13:18 | 45.65820 | 25.02478 | 33550 ft | 433 kts | 317° |
| 2026-04-30 13:18 | 45.70523 | 24.97085 | 34312 ft | 433 kts | 317° |
| 2026-04-30 13:18 | 45.72867 | 24.94386 | 34639 ft | 433 kts | 318° |
| 2026-04-30 13:19 | 45.75209 | 24.91685 | 34949 ft | 433 kts | 318° |
| 2026-04-30 13:19 | 45.77551 | 24.88977 | 35256 ft | 433 kts | 318° |
| 2026-04-30 13:19 | 45.79894 | 24.86266 | 35568 ft | 433 kts | 318° |
| 2026-04-30 13:19 | 45.82239 | 24.83550 | 35876 ft | 433 kts | 318° |
| 2026-04-30 13:20 | 45.84586 | 24.80832 | 36177 ft | 433 kts | 318° |
| 2026-04-30 13:20 | 45.86931 | 24.78120 | 36470 ft | 433 kts | 319° |
| 2026-04-30 13:20 | 45.89278 | 24.75408 | 36758 ft | 434 kts | 319° |
| 2026-04-30 13:20 | 45.91637 | 24.72681 | 37038 ft | 434 kts | 319° |
| 2026-04-30 13:21 | 45.93986 | 24.69953 | 37309 ft | 434 kts | 319° |
| 2026-04-30 13:21 | 45.96328 | 24.67226 | 37566 ft | 434 kts | 319° |
| 2026-04-30 13:21 | 45.98672 | 24.64493 | 37826 ft | 434 kts | 319° |
| 2026-04-30 13:22 | 46.03336 | 24.59043 | 38245 ft | 435 kts | 319° |
| 2026-04-30 13:22 | 46.10370 | 24.50817 | 38278 ft | 434 kts | 319° |
| 2026-04-30 13:23 | 46.17405 | 24.42568 | 38278 ft | 434 kts | 319° |
| 2026-04-30 13:24 | 46.26784 | 24.31508 | 38276 ft | 435 kts | 319° |
| 2026-04-30 13:25 | 46.36164 | 24.20411 | 38280 ft | 436 kts | 319° |
| 2026-04-30 13:26 | 46.47895 | 24.06454 | 38296 ft | 436 kts | 320° |
| 2026-04-30 13:28 | 46.59603 | 23.92430 | 38295 ft | 436 kts | 320° |
| 2026-04-30 13:28 | 46.66616 | 23.83985 | 38282 ft | 436 kts | 320° |
| 2026-04-30 13:29 | 46.75971 | 23.72725 | 38294 ft | 436 kts | 320° |
| 2026-04-30 13:31 | 46.87603 | 23.58602 | 38288 ft | 435 kts | 320° |
| 2026-04-30 13:32 | 46.99217 | 23.44429 | 38280 ft | 436 kts | 320° |
| 2026-04-30 13:33 | 47.08533 | 23.32995 | 38282 ft | 437 kts | 320° |
| 2026-04-30 13:34 | 47.15521 | 23.24391 | 38279 ft | 437 kts | 320° |
| 2026-04-30 13:35 | 47.24820 | 23.12884 | 38302 ft | 436 kts | 320° |
| 2026-04-30 13:36 | 47.34056 | 23.01386 | 38283 ft | 435 kts | 320° |
| 2026-04-30 13:36 | 47.40995 | 22.92723 | 38304 ft | 435 kts | 320° |
| 2026-04-30 13:37 | 47.47922 | 22.84046 | 38295 ft | 435 kts | 320° |
| 2026-04-30 13:38 | 47.54842 | 22.75349 | 38309 ft | 435 kts | 320° |
| 2026-04-30 13:39 | 47.64069 | 22.63707 | 38309 ft | 436 kts | 320° |
| 2026-04-30 13:40 | 47.70992 | 22.54920 | 38309 ft | 436 kts | 320° |
| 2026-04-30 13:40 | 47.75600 | 22.49047 | 38309 ft | 437 kts | 320° |
| 2026-04-30 13:41 | 47.79866 | 22.42617 | 38310 ft | 439 kts | 307° |
| 2026-04-30 13:41 | 47.82957 | 22.34756 | 38296 ft | 441 kts | 301° |
| 2026-04-30 13:42 | 47.85956 | 22.26778 | 38312 ft | 442 kts | 301° |
| 2026-04-30 13:42 | 47.90452 | 22.14773 | 38323 ft | 442 kts | 301° |
| 2026-04-30 13:43 | 47.93445 | 22.06756 | 38337 ft | 443 kts | 301° |
| 2026-04-30 13:43 | 47.96414 | 21.98765 | 38348 ft | 443 kts | 301° |
| 2026-04-30 13:44 | 47.99401 | 21.90698 | 38355 ft | 443 kts | 301° |
| 2026-04-30 13:44 | 48.01876 | 21.84000 | 38365 ft | 443 kts | 301° |
| 2026-04-30 13:45 | 48.06342 | 21.71907 | 38365 ft | 443 kts | 301° |
| 2026-04-30 13:46 | 48.09309 | 21.63826 | 38363 ft | 443 kts | 301° |
| 2026-04-30 13:46 | 48.12262 | 21.55733 | 38363 ft | 443 kts | 301° |
| 2026-04-30 13:47 | 48.15210 | 21.47631 | 38360 ft | 443 kts | 301° |
| 2026-04-30 13:47 | 48.18155 | 21.39526 | 38360 ft | 443 kts | 301° |
| 2026-04-30 13:48 | 48.21096 | 21.31423 | 38358 ft | 443 kts | 301° |
| 2026-04-30 13:48 | 48.24032 | 21.23294 | 38363 ft | 443 kts | 301° |
| 2026-04-30 13:49 | 48.26760 | 21.15727 | 38364 ft | 443 kts | 301° |
| 2026-04-30 13:49 | 48.29518 | 21.08032 | 38370 ft | 443 kts | 301° |
| 2026-04-30 13:50 | 48.32435 | 20.99896 | 38368 ft | 442 kts | 301° |
| 2026-04-30 13:50 | 48.36803 | 20.87661 | 38362 ft | 442 kts | 301° |
| 2026-04-30 13:51 | 48.39681 | 20.79543 | 38354 ft | 442 kts | 301° |
| 2026-04-30 13:51 | 48.42578 | 20.71366 | 38355 ft | 442 kts | 301° |
| 2026-04-30 13:52 | 48.45470 | 20.63192 | 38351 ft | 442 kts | 301° |
| 2026-04-30 13:52 | 48.48355 | 20.55006 | 38225 ft | 441 kts | 301° |
| 2026-04-30 13:53 | 48.49791 | 20.50917 | 37686 ft | 441 kts | 301° |
| 2026-04-30 13:53 | 48.51224 | 20.46827 | 37112 ft | 441 kts | 301° |
| 2026-04-30 13:53 | 48.52652 | 20.42743 | 36543 ft | 441 kts | 301° |
| 2026-04-30 13:53 | 48.54080 | 20.38643 | 36021 ft | 440 kts | 301° |
| 2026-04-30 13:54 | 48.55495 | 20.34573 | 35602 ft | 436 kts | 300° |
| 2026-04-30 13:54 | 48.56675 | 20.30360 | 35185 ft | 437 kts | 290° |
| 2026-04-30 13:54 | 48.57355 | 20.25894 | 34766 ft | 438 kts | 281° |
| 2026-04-30 13:54 | 48.57516 | 20.21303 | 34356 ft | 438 kts | 270° |
| 2026-04-30 13:55 | 48.57170 | 20.16724 | 33866 ft | 438 kts | 264° |
| 2026-04-30 13:55 | 48.56675 | 20.12199 | 33381 ft | 435 kts | 264° |
| 2026-04-30 13:55 | 48.56186 | 20.07708 | 32879 ft | 432 kts | 264° |
| 2026-04-30 13:55 | 48.55701 | 20.03247 | 32412 ft | 429 kts | 264° |
| 2026-04-30 13:56 | 48.55220 | 19.98819 | 31945 ft | 426 kts | 264° |
| 2026-04-30 13:56 | 48.54742 | 19.94427 | 31489 ft | 423 kts | 264° |
| 2026-04-30 13:56 | 48.54262 | 19.90058 | 31056 ft | 420 kts | 264° |
| 2026-04-30 13:56 | 48.53782 | 19.85733 | 30620 ft | 417 kts | 264° |
| 2026-04-30 13:57 | 48.53303 | 19.81427 | 30154 ft | 414 kts | 264° |
| 2026-04-30 13:57 | 48.52825 | 19.77156 | 29647 ft | 412 kts | 264° |
| 2026-04-30 13:57 | 48.52349 | 19.72911 | 29137 ft | 409 kts | 264° |
| 2026-04-30 13:57 | 48.51882 | 19.68756 | 28705 ft | 406 kts | 264° |
| 2026-04-30 13:58 | 48.51408 | 19.64568 | 28261 ft | 403 kts | 264° |
| 2026-04-30 13:58 | 48.50470 | 19.56281 | 27446 ft | 398 kts | 264° |
| 2026-04-30 13:58 | 48.50005 | 19.52175 | 27042 ft | 396 kts | 264° |
| 2026-04-30 13:59 | 48.49541 | 19.48096 | 26650 ft | 394 kts | 264° |
| 2026-04-30 13:59 | 48.49071 | 19.43988 | 26248 ft | 391 kts | 264° |
| 2026-04-30 13:59 | 48.48609 | 19.39960 | 25853 ft | 389 kts | 264° |
| 2026-04-30 13:59 | 48.48156 | 19.36016 | 25452 ft | 386 kts | 264° |
| 2026-04-30 14:00 | 48.47697 | 19.32037 | 25053 ft | 384 kts | 264° |
| 2026-04-30 14:00 | 48.46787 | 19.24159 | 24260 ft | 379 kts | 264° |
| 2026-04-30 14:00 | 48.46331 | 19.20254 | 23842 ft | 377 kts | 263° |
| 2026-04-30 14:01 | 48.45877 | 19.16376 | 23371 ft | 374 kts | 263° |
| 2026-04-30 14:01 | 48.45425 | 19.12519 | 22898 ft | 372 kts | 263° |
| 2026-04-30 14:01 | 48.44948 | 19.08703 | 22438 ft | 370 kts | 262° |
| 2026-04-30 14:01 | 48.44413 | 19.04919 | 21988 ft | 368 kts | 261° |
| 2026-04-30 14:02 | 48.43851 | 19.01211 | 21563 ft | 366 kts | 260° |
| 2026-04-30 14:02 | 48.43265 | 18.97449 | 21126 ft | 364 kts | 260° |
| 2026-04-30 14:02 | 48.42688 | 18.93749 | 20695 ft | 361 kts | 261° |
| 2026-04-30 14:02 | 48.42129 | 18.90120 | 20270 ft | 359 kts | 261° |
| 2026-04-30 14:03 | 48.41573 | 18.86464 | 19861 ft | 357 kts | 261° |
| 2026-04-30 14:03 | 48.41025 | 18.82826 | 19453 ft | 355 kts | 261° |
| 2026-04-30 14:03 | 48.40482 | 18.79205 | 19021 ft | 353 kts | 261° |
| 2026-04-30 14:03 | 48.39943 | 18.75608 | 18600 ft | 351 kts | 261° |
| 2026-04-30 14:04 | 48.39405 | 18.72033 | 18170 ft | 349 kts | 261° |
| 2026-04-30 14:04 | 48.38867 | 18.68489 | 17735 ft | 347 kts | 261° |
| 2026-04-30 14:04 | 48.38329 | 18.64964 | 17295 ft | 345 kts | 261° |
| 2026-04-30 14:04 | 48.37792 | 18.61460 | 16893 ft | 342 kts | 261° |
| 2026-04-30 14:05 | 48.37259 | 18.57985 | 16485 ft | 340 kts | 261° |
| 2026-04-30 14:05 | 48.36727 | 18.54532 | 16073 ft | 338 kts | 260° |
| 2026-04-30 14:05 | 48.36198 | 18.51097 | 15677 ft | 336 kts | 260° |
| 2026-04-30 14:05 | 48.35672 | 18.47688 | 15285 ft | 334 kts | 260° |
| 2026-04-30 14:06 | 48.35086 | 18.44313 | 14895 ft | 334 kts | 251° |
| 2026-04-30 14:06 | 48.33141 | 18.38023 | 14146 ft | 332 kts | 247° |
| 2026-04-30 14:07 | 48.31171 | 18.31794 | 13330 ft | 328 kts | 247° |
| 2026-04-30 14:07 | 48.30179 | 18.28672 | 12914 ft | 326 kts | 246° |
| 2026-04-30 14:07 | 48.29204 | 18.25612 | 12531 ft | 324 kts | 246° |
| 2026-04-30 14:08 | 48.27286 | 18.19591 | 11764 ft | 320 kts | 246° |
| 2026-04-30 14:08 | 48.26325 | 18.16580 | 11377 ft | 319 kts | 246° |
| 2026-04-30 14:08 | 48.24412 | 18.10628 | 10638 ft | 315 kts | 246° |
| 2026-04-30 14:09 | 48.23461 | 18.07676 | 10369 ft | 311 kts | 246° |
| 2026-04-30 14:09 | 48.22531 | 18.04784 | 10110 ft | 306 kts | 246° |
| 2026-04-30 14:09 | 48.20701 | 17.99091 | 9433 ft | 300 kts | 246° |
| 2026-04-30 14:10 | 48.19798 | 17.96283 | 9092 ft | 298 kts | 246° |
| 2026-04-30 14:10 | 48.18904 | 17.93501 | 8776 ft | 295 kts | 246° |
| 2026-04-30 14:10 | 48.18018 | 17.90747 | 8443 ft | 292 kts | 246° |
| 2026-04-30 14:10 | 48.17133 | 17.88010 | 8113 ft | 290 kts | 246° |
| 2026-04-30 14:11 | 48.16257 | 17.85309 | 7805 ft | 287 kts | 246° |
| 2026-04-30 14:11 | 48.15386 | 17.82627 | 7481 ft | 285 kts | 246° |
| 2026-04-30 14:11 | 48.14521 | 17.79973 | 7157 ft | 283 kts | 246° |
| 2026-04-30 14:11 | 48.13662 | 17.77333 | 6835 ft | 280 kts | 246° |
| 2026-04-30 14:12 | 48.12812 | 17.74719 | 6524 ft | 278 kts | 246° |
| 2026-04-30 14:12 | 48.11970 | 17.72123 | 6179 ft | 277 kts | 246° |
| 2026-04-30 14:12 | 48.11132 | 17.69540 | 5851 ft | 275 kts | 246° |
| 2026-04-30 14:12 | 48.10578 | 17.67840 | 5661 ft | 274 kts | 246° |
| 2026-04-30 14:13 | 48.09476 | 17.64459 | 5280 ft | 272 kts | 246° |
| 2026-04-30 14:13 | 48.08646 | 17.61918 | 4952 ft | 271 kts | 246° |
| 2026-04-30 14:13 | 48.07820 | 17.59389 | 4638 ft | 270 kts | 246° |
| 2026-04-30 14:13 | 48.06998 | 17.56871 | 4323 ft | 269 kts | 246° |
| 2026-04-30 14:14 | 48.06178 | 17.54364 | 3965 ft | 268 kts | 246° |
| 2026-04-30 14:14 | 48.05365 | 17.51890 | 3751 ft | 262 kts | 246° |
| 2026-04-30 14:14 | 48.04569 | 17.49473 | 3632 ft | 255 kts | 246° |
| 2026-04-30 14:14 | 48.03804 | 17.47132 | 3526 ft | 244 kts | 248° |
| 2026-04-30 14:15 | 48.03437 | 17.44762 | 3378 ft | 226 kts | 272° |
| 2026-04-30 14:15 | 48.03692 | 17.42551 | 3272 ft | 206 kts | 294° |
| 2026-04-30 14:15 | 48.04352 | 17.40850 | 3170 ft | 173 kts | 313° |
| 2026-04-30 14:15 | 48.05106 | 17.39663 | 3034 ft | 145 kts | 318° |
| 2026-04-30 14:16 | 48.05776 | 17.38631 | 2835 ft | 134 kts | 318° |
| 2026-04-30 14:16 | 48.06418 | 17.37643 | 2588 ft | 132 kts | 319° |
| 2026-04-30 14:16 | 48.07052 | 17.36668 | 2548 ft | 133 kts | 319° |
| 2026-04-30 14:16 | 48.07695 | 17.35677 | 2526 ft | 133 kts | 318° |
| 2026-04-30 14:17 | 48.08339 | 17.34684 | 2500 ft | 133 kts | 318° |
| 2026-04-30 14:17 | 48.08985 | 17.33688 | 2387 ft | 133 kts | 319° |
| 2026-04-30 14:17 | 48.09628 | 17.32695 | 2229 ft | 132 kts | 318° |
| 2026-04-30 14:17 | 48.10267 | 17.31707 | 2064 ft | 132 kts | 318° |
| 2026-04-30 14:18 | 48.10903 | 17.30724 | 1888 ft | 132 kts | 319° |
| 2026-04-30 14:18 | 48.11540 | 17.29740 | 1701 ft | 131 kts | 317° |
| 2026-04-30 14:18 | 48.12803 | 17.27761 | 1353 ft | 132 kts | 317° |
| 2026-04-30 14:19 | 48.14084 | 17.25797 | 966 ft | 132 kts | 317° |
| 2026-04-30 14:19 | 48.14711 | 17.24794 | 785 ft | 132 kts | 317° |
| 2026-04-30 14:19 | 48.15346 | 17.23815 | 590 ft | 131 kts | 324° |
| 2026-04-30 14:20 | 48.15985 | 17.22844 | 424 ft | 127 kts | 322° |
| 2026-04-30 14:20 | 48.16497 | 17.22079 | 418 ft | 80 kts | 314° |
| 2026-04-30 14:20 | 48.16995 | 17.21295 | 426 ft | 41 kts | 315° |
| 2026-04-30 14:21 | 48.17123 | 17.21093 | 423 ft | 19 kts | 311° |
| 2026-04-30 14:21 | 48.17101 | 17.20971 | 420 ft | 13 kts | 227° |
| 2026-04-30 14:21 | 48.16974 | 17.20773 | 429 ft | 14 kts | 225° |
| 2026-04-30 14:22 | 48.16904 | 17.20667 | 427 ft | 14 kts | 225° |
| 2026-04-30 14:22 | 48.16760 | 17.20452 | 431 ft | 15 kts | 224° |
| 2026-04-30 14:22 | 48.16733 | 17.20327 | 429 ft | 14 kts | 304° |
| 2026-04-30 14:23 | 48.16841 | 17.20097 | 426 ft | 8 kts | 244° |
| 2026-04-30 14:23 | 48.16819 | 17.20016 | 439 ft | 4 kts | 307° |
| 2026-04-30 14:24 | 48.16842 | 17.19977 | 431 ft | 1 kts | 313° |
| 2026-04-30 14:24 | 48.16845 | 17.19973 | 430 ft | 0 kts | 313° |